Time;durP1;ratioP1;P1;durP2;ratioP2;P2;SDS_P1;SDS_P2;PMS_P1;PMS_P2;Temp;Humidity;BMP_temperature;BMP_pressure;BME280_temperature;BME280_humidity;BME280_pressure;Samples;Min_cycle;Max_cycle;Signal;HPM_P1;HPM_P2
2022/05/30 00:00:24;;;;;;;11.23;10.93;;;21.40;66.60;;;;;;5033864;28;20496;-70
2022/05/30 00:02:51;;;;;;;11.10;10.80;;;21.40;66.70;;;;;;5051424;28;20452;-70
2022/05/30 00:05:20;;;;;;;10.40;10.10;;;21.30;66.40;;;;;;5053828;28;20444;-70
2022/05/30 00:07:48;;;;;;;10.00;9.80;;;21.40;66.50;;;;;;5053668;28;20444;-69
2022/05/30 00:10:15;;;;;;;10.70;10.40;;;21.30;66.40;;;;;;5053635;28;20465;-70
2022/05/30 00:12:43;;;;;;;11.50;11.20;;;21.40;66.70;;;;;;5037445;28;20441;-69
2022/05/30 00:15:13;;;;;;;10.30;10.10;;;21.30;66.80;;;;;;5033621;28;20460;-69
2022/05/30 00:17:39;;;;;;;10.40;10.10;;;21.30;66.80;;;;;;5033390;28;20492;-70
2022/05/30 00:20:07;;;;;;;10.67;10.37;;;21.30;66.60;;;;;;5033514;28;20822;-70
2022/05/30 00:22:34;;;;;;;11.10;10.80;;;21.30;66.50;;;;;;5048254;28;20479;-69
2022/05/30 00:25:03;;;;;;;10.20;10.00;;;21.30;66.40;;;;;;5053413;28;20943;-70
2022/05/30 00:27:30;;;;;;;10.00;9.80;;;21.30;66.40;;;;;;5053285;28;20452;-70
2022/05/30 00:29:57;;;;;;;10.30;10.10;;;21.30;66.50;;;;;;5053126;28;20968;-70
2022/05/30 00:32:24;;;;;;;11.50;11.20;;;21.30;66.40;;;;;;5040027;28;20448;-70
2022/05/30 00:34:51;;;;;;;11.10;10.80;;;21.30;66.20;;;;;;5033307;28;20533;-70
2022/05/30 00:37:18;;;;;;;10.83;10.53;;;21.30;66.30;;;;;;5033393;28;20860;-70
2022/05/30 00:39:44;;;;;;;10.13;9.93;;;21.30;66.40;;;;;;5033588;28;20445;-70
2022/05/30 00:42:15;;;;;;;11.20;10.90;;;21.30;66.40;;;;;;5033192;28;20953;-70
2022/05/30 00:44:42;;;;;;;10.50;10.30;;;21.30;66.40;;;;;;5033537;28;20449;-70
2022/05/30 00:47:09;;;;;;;10.77;10.47;;;21.30;66.60;;;;;;5032514;28;20440;-70
2022/05/30 00:49:38;;;;;;;10.40;10.20;;;21.20;66.50;;;;;;5049384;28;20971;-70
2022/05/30 00:52:07;;;;;;;11.43;11.10;;;21.20;66.50;;;;;;5052900;28;20993;-69
2022/05/30 00:54:38;;;;;;;11.53;11.23;;;21.20;66.40;;;;;;5052866;28;20484;-70
2022/05/30 00:57:21;;;;;;;10.30;10.10;;;21.20;66.40;;;;;;5052591;28;20484;-69
2022/05/30 00:59:55;;;;;;;10.70;10.43;;;21.20;66.40;;;;;;5034606;28;20963;-70
2022/05/30 01:02:24;;;;;;;10.83;10.53;;;21.20;66.40;;;;;;5032968;28;20788;-70
2022/05/30 01:07:37;;;;;;;10.50;10.23;;;21.20;66.40;;;;;;5032602;28;20409;-70
2022/05/30 01:10:07;;;;;;;11.70;11.30;;;21.20;66.40;;;;;;5052166;28;20456;-70
2022/05/30 01:12:41;;;;;;;10.70;10.43;;;21.20;66.30;;;;;;5052568;28;20439;-70
2022/05/30 01:15:13;;;;;;;11.50;11.20;;;21.20;66.10;;;;;;5052527;28;20448;-69
2022/05/30 01:17:49;;;;;;;11.30;11.00;;;21.20;66.40;;;;;;5052009;28;20490;-69
2022/05/30 01:20:35;;;;;;;10.50;10.30;;;21.10;66.20;;;;;;5032543;28;20530;-70
2022/05/30 01:23:36;;;;;;;10.43;10.13;;;21.10;66.30;;;;;;5032353;28;21013;-70
2022/05/30 01:26:23;;;;;;;10.90;10.60;;;21.10;66.40;;;;;;5018923;28;20441;-70
2022/05/30 01:28:55;;;;;;;11.50;11.10;;;21.10;66.10;;;;;;5040883;28;20444;-69
2022/05/30 01:31:24;;;;;;;10.90;10.60;;;21.10;66.30;;;;;;5052032;28;20890;-70
2022/05/30 01:33:51;;;;;;;10.70;10.40;;;21.10;66.20;;;;;;5052160;28;20443;-70
2022/05/30 01:36:22;;;;;;;11.07;10.77;;;21.10;66.10;;;;;;5052048;28;20441;-69
2022/05/30 01:38:49;;;;;;;10.80;10.50;;;21.10;66.20;;;;;;5043090;28;20473;-69
2022/05/30 01:41:15;;;;;;;11.20;10.80;;;21.10;66.20;;;;;;5032088;28;21007;-70
2022/05/30 01:43:42;;;;;;;10.80;10.50;;;21.10;66.30;;;;;;5032150;28;20460;-70
2022/05/30 01:46:12;;;;;;;10.20;9.90;;;21.10;66.10;;;;;;5033082;28;20940;-70
2022/05/30 01:48:39;;;;;;;11.23;10.93;;;21.10;66.00;;;;;;5031835;28;20448;-70
2022/05/30 01:51:06;;;;;;;11.40;11.10;;;21.10;66.10;;;;;;5031899;28;20469;-69
2022/05/30 01:53:33;;;;;;;11.07;10.83;;;21.10;66.10;;;;;;5031896;28;20445;-69
2022/05/30 01:56:00;;;;;;;11.10;10.80;;;21.10;65.90;;;;;;5045330;28;20452;-70
2022/05/30 01:58:26;;;;;;;11.93;11.53;;;21.10;66.10;;;;;;5050737;28;20469;-69
2022/05/30 02:00:53;;;;;;;10.80;10.53;;;21.10;66.00;;;;;;5051596;28;20475;-70
2022/05/30 02:03:21;;;;;;;10.47;10.17;;;21.10;66.00;;;;;;5051726;28;20452;-70
2022/05/30 02:05:48;;;;;;;11.10;10.90;;;21.10;66.00;;;;;;5039750;28;20448;-70
2022/05/30 02:08:20;;;;;;;11.43;11.13;;;21.00;65.80;;;;;;5031454;28;20437;-69
2022/05/30 02:10:48;;;;;;;10.97;10.67;;;21.00;65.90;;;;;;5031643;28;20468;-69
2022/05/30 02:13:14;;;;;;;11.30;11.00;;;21.00;65.90;;;;;;5031671;28;20933;-69
2022/05/30 02:18:27;;;;;;;11.23;10.83;;;21.00;66.00;;;;;;5051547;28;20823;-69
2022/05/30 02:20:54;;;;;;;11.97;11.57;;;21.00;65.90;;;;;;5051454;28;20831;-69
2022/05/30 02:23:20;;;;;;;10.90;10.60;;;21.00;66.00;;;;;;5051423;28;20940;-70
2022/05/30 02:25:48;;;;;;;11.67;11.30;;;21.00;66.10;;;;;;5039761;28;20943;-69
2022/05/30 02:28:15;;;;;;;11.30;11.00;;;21.00;66.00;;;;;;5031344;28;20449;-70
2022/05/30 02:30:41;;;;;;;10.53;10.30;;;21.00;66.00;;;;;;5031331;28;20476;-69
2022/05/30 02:38:38;;;;;;;10.67;10.47;;;20.90;66.00;;;;;;5051167;28;20485;-69
2022/05/30 02:41:04;;;;;;;11.03;10.80;;;20.90;66.00;;;;;;5051523;28;20467;-69
2022/05/30 02:43:31;;;;;;;11.30;11.00;;;20.90;65.90;;;;;;5051490;28;20444;-70
2022/05/30 02:45:58;;;;;;;11.20;10.90;;;20.90;65.80;;;;;;5038525;28;20449;-69
2022/05/30 02:48:25;;;;;;;11.03;10.73;;;20.90;65.80;;;;;;5031056;28;20468;-69
2022/05/30 02:50:51;;;;;;;11.80;11.40;;;21.00;65.80;;;;;;5031218;28;20552;-69
2022/05/30 02:53:19;;;;;;;11.77;11.47;;;20.90;65.70;;;;;;5035253;28;20459;-69
2022/05/30 02:55:46;;;;;;;12.63;12.30;;;21.00;66.00;;;;;;5051241;28;20440;-70
2022/05/30 02:58:13;;;;;;;12.40;12.10;;;20.90;65.70;;;;;;5050900;28;20480;-69
2022/05/30 03:00:40;;;;;;;11.70;11.40;;;20.90;65.60;;;;;;5051200;28;20474;-69
2022/05/30 03:03:07;;;;;;;12.00;11.70;;;20.90;65.70;;;;;;5048768;28;20447;-70
2022/05/30 03:05:33;;;;;;;11.17;10.87;;;20.90;65.70;;;;;;5031276;28;20508;-70
2022/05/30 03:08:04;;;;;;;11.20;10.90;;;20.90;65.60;;;;;;5030925;28;20437;-69
2022/05/30 03:10:32;;;;;;;11.33;11.03;;;20.90;65.60;;;;;;5032938;28;20461;-70
2022/05/30 03:12:59;;;;;;;11.00;10.70;;;20.90;65.70;;;;;;5035639;28;20472;-69
2022/05/30 03:15:26;;;;;;;11.63;11.33;;;20.90;65.90;;;;;;5054525;28;20440;-70
2022/05/30 03:17:53;;;;;;;11.27;10.97;;;20.90;65.70;;;;;;5053887;28;20479;-69
2022/05/30 03:20:21;;;;;;;11.50;11.20;;;20.90;65.80;;;;;;5054536;28;20472;-69
2022/05/30 03:22:48;;;;;;;12.00;11.70;;;20.90;65.80;;;;;;5054818;28;20455;-69
2022/05/30 03:25:16;;;;;;;11.70;11.40;;;20.90;65.80;;;;;;5034946;28;20948;-70
2022/05/30 03:27:44;;;;;;;12.17;11.87;;;20.90;65.80;;;;;;5034686;28;20449;-68
2022/05/30 03:30:12;;;;;;;11.60;11.30;;;20.80;65.70;;;;;;5034521;28;20477;-69
2022/05/30 03:32:41;;;;;;;11.40;11.00;;;20.80;65.70;;;;;;5034800;28;20527;-70
2022/05/30 03:35:08;;;;;;;11.03;10.73;;;20.80;65.70;;;;;;5034432;28;20495;-69
2022/05/30 03:37:37;;;;;;;11.83;11.53;;;20.80;65.70;;;;;;5034180;28;20477;-69
2022/05/30 03:40:05;;;;;;;12.00;11.63;;;20.90;65.80;;;;;;5034274;28;20863;-69
2022/05/30 03:42:32;;;;;;;11.60;11.30;;;20.80;65.70;;;;;;5035499;28;20449;-69
2022/05/30 03:45:00;;;;;;;11.87;11.57;;;20.80;66.40;;;;;;5034308;28;20448;-70
2022/05/30 03:47:27;;;;;;;12.53;12.17;;;20.80;65.70;;;;;;5034188;28;20815;-69
2022/05/30 03:49:59;;;;;;;11.90;11.60;;;20.80;65.60;;;;;;5034016;28;20449;-69
2022/05/30 03:52:26;;;;;;;11.50;11.20;;;20.80;65.60;;;;;;5045815;28;20456;-65
2022/05/30 03:54:53;;;;;;;11.87;11.57;;;20.80;65.90;;;;;;5054155;28;20467;-65
2022/05/30 03:57:20;;;;;;;11.30;11.00;;;20.80;65.70;;;;;;5053797;28;20456;-65
2022/05/30 03:59:47;;;;;;;10.87;10.57;;;20.80;65.70;;;;;;5053797;28;20447;-65
2022/05/30 04:02:15;;;;;;;11.63;11.33;;;20.70;65.80;;;;;;5043658;28;20444;-65
2022/05/30 04:04:42;;;;;;;11.77;11.47;;;20.70;66.00;;;;;;5033945;28;20832;-65
2022/05/30 04:07:09;;;;;;;12.60;12.20;;;20.70;66.00;;;;;;5034084;28;20448;-65
2022/05/30 04:09:36;;;;;;;13.03;12.63;;;20.70;66.10;;;;;;5033802;28;20448;-65
2022/05/30 04:12:03;;;;;;;11.83;11.53;;;20.70;66.20;;;;;;5041767;28;20471;-65
2022/05/30 04:14:31;;;;;;;12.77;12.47;;;20.70;66.20;;;;;;5053732;28;20447;-65
2022/05/30 04:16:58;;;;;;;12.50;12.10;;;20.70;66.30;;;;;;5053513;28;20609;-65
2022/05/30 04:19:26;;;;;;;12.83;12.43;;;20.70;66.10;;;;;;5053371;28;20483;-65
2022/05/30 04:21:53;;;;;;;11.80;11.50;;;20.70;66.20;;;;;;5043242;28;20476;-65
2022/05/30 04:24:19;;;;;;;11.80;11.50;;;20.70;66.30;;;;;;5033543;28;20449;-65
2022/05/30 04:26:46;;;;;;;11.90;11.60;;;20.70;66.20;;;;;;5033305;28;20453;-65
2022/05/30 04:29:13;;;;;;;12.30;11.80;;;20.70;66.30;;;;;;5033718;28;20441;-65
2022/05/30 04:31:40;;;;;;;12.33;11.90;;;20.70;66.20;;;;;;5083775;22;20483;-69
2022/05/30 04:34:08;;;;;;;12.30;11.80;;;20.70;66.10;;;;;;5073283;28;20799;-69
2022/05/30 04:36:37;;;;;;;13.10;12.47;;;20.70;66.40;;;;;;5073417;28;20443;-69
2022/05/30 04:39:04;;;;;;;14.00;13.23;;;20.70;66.70;;;;;;5072949;28;20478;-70
2022/05/30 04:41:31;;;;;;;15.70;14.50;;;20.80;68.40;;;;;;5060491;28;20482;-70
2022/05/30 04:43:59;;;;;;;14.47;13.53;;;20.80;71.10;;;;;;5053275;28;20451;-70
2022/05/30 04:46:26;;;;;;;15.57;14.43;;;20.80;71.50;;;;;;5052929;28;20957;-69
2022/05/30 04:48:53;;;;;;;15.10;14.00;;;20.80;73.40;;;;;;5052709;28;20437;-71
2022/05/30 04:51:20;;;;;;;15.70;14.30;;;20.80;76.00;;;;;;5052840;28;20487;-70
2022/05/30 04:53:48;;;;;;;15.13;13.83;;;20.80;77.70;;;;;;5052880;28;20446;-70
2022/05/30 04:56:17;;;;;;;16.17;15.17;;;20.80;79.20;;;;;;5052896;28;20441;-70
2022/05/30 04:58:44;;;;;;;15.47;14.30;;;20.80;79.10;;;;;;5052751;28;20534;-70
2022/05/30 05:01:11;;;;;;;15.13;14.00;;;20.80;78.90;;;;;;5052290;28;20468;-70
2022/05/30 05:03:39;;;;;;;15.50;14.37;;;20.80;78.60;;;;;;5052733;28;20812;-69
2022/05/30 05:06:09;;;;;;;15.30;14.40;;;20.80;78.30;;;;;;5053067;28;20448;-69
2022/05/30 05:08:44;;;;;;;15.20;14.10;;;20.80;78.00;;;;;;5052686;28;20436;-69
2022/05/30 05:11:19;;;;;;;15.30;14.50;;;20.80;77.70;;;;;;5052780;28;20532;-70
2022/05/30 05:13:46;;;;;;;14.40;13.70;;;20.80;77.20;;;;;;5052541;28;20458;-70
2022/05/30 05:16:13;;;;;;;14.97;14.00;;;20.80;76.80;;;;;;5052518;28;20452;-69
2022/05/30 05:18:40;;;;;;;15.50;14.60;;;20.80;76.80;;;;;;5052471;28;20476;-69
2022/05/30 05:21:07;;;;;;;14.80;13.90;;;20.80;76.50;;;;;;5052361;28;20464;-69
2022/05/30 05:23:34;;;;;;;14.50;13.77;;;20.80;76.20;;;;;;5052616;28;20954;-69
2022/05/30 05:26:06;;;;;;;15.37;14.37;;;20.80;75.90;;;;;;5052555;28;20451;-69
2022/05/30 05:28:34;;;;;;;13.97;13.30;;;20.80;75.70;;;;;;5052167;28;20444;-69
2022/05/30 05:31:02;;;;;;;15.10;14.40;;;20.80;75.50;;;;;;5052185;28;20494;-69
2022/05/30 05:33:29;;;;;;;15.43;14.63;;;20.80;75.20;;;;;;5052048;28;20451;-69
2022/05/30 05:35:56;;;;;;;14.63;14.00;;;20.80;75.00;;;;;;5052259;28;20447;-69
2022/05/30 05:38:23;;;;;;;14.67;14.07;;;20.80;74.70;;;;;;5051831;28;20511;-69
2022/05/30 05:40:50;;;;;;;14.43;13.57;;;20.80;74.50;;;;;;5052103;28;20836;-69
2022/05/30 05:43:17;;;;;;;14.90;14.10;;;20.80;74.40;;;;;;5052344;28;20440;-69
2022/05/30 05:45:46;;;;;;;15.10;14.40;;;20.80;74.10;;;;;;5051986;28;20471;-69
2022/05/30 05:48:14;;;;;;;15.03;14.33;;;20.80;73.90;;;;;;5051856;28;20448;-69
2022/05/30 05:50:42;;;;;;;14.17;13.57;;;20.80;73.70;;;;;;5052043;28;20464;-69
2022/05/30 05:53:10;;;;;;;14.93;13.93;;;20.80;73.50;;;;;;5051887;28;20809;-69
2022/05/30 05:55:37;;;;;;;15.90;14.90;;;20.80;73.40;;;;;;5051906;28;20538;-69
2022/05/30 05:58:04;;;;;;;16.40;15.27;;;20.80;73.30;;;;;;5051469;28;20815;-69
2022/05/30 06:00:32;;;;;;;14.70;13.83;;;20.80;73.00;;;;;;5052039;28;20456;-69
2022/05/30 06:03:00;;;;;;;14.23;13.70;;;20.80;73.00;;;;;;5051735;28;20459;-69
2022/05/30 06:05:30;;;;;;;13.90;13.30;;;20.80;72.70;;;;;;5051663;28;20447;-69
2022/05/30 06:07:59;;;;;;;14.40;13.63;;;20.80;72.60;;;;;;5051443;28;20851;-69
2022/05/30 06:10:26;;;;;;;14.73;13.83;;;20.80;72.60;;;;;;5051494;28;20471;-69
2022/05/30 06:12:53;;;;;;;15.27;14.27;;;20.80;72.40;;;;;;5051582;28;20447;-69
2022/05/30 06:15:21;;;;;;;14.17;13.67;;;20.80;72.30;;;;;;5051851;28;20441;-69
2022/05/30 06:17:47;;;;;;;14.07;13.00;;;20.80;72.10;;;;;;5051340;28;20455;-69
2022/05/30 06:20:17;;;;;;;15.20;14.10;;;20.80;71.90;;;;;;5051587;28;20897;-69
2022/05/30 06:22:44;;;;;;;14.23;13.73;;;20.80;71.90;;;;;;5051617;28;20872;-69
2022/05/30 06:25:11;;;;;;;13.97;13.37;;;20.80;71.70;;;;;;5051630;28;20448;-69
2022/05/30 06:27:38;;;;;;;14.87;14.27;;;20.80;71.70;;;;;;5051281;28;20961;-69
2022/05/30 06:30:06;;;;;;;15.47;14.90;;;20.80;71.50;;;;;;5051322;28;20440;-69
2022/05/30 06:32:32;;;;;;;14.00;13.40;;;20.80;71.50;;;;;;5051366;28;20448;-69
2022/05/30 06:34:59;;;;;;;14.63;14.03;;;20.80;71.30;;;;;;5051655;28;20447;-69
2022/05/30 06:37:27;;;;;;;15.10;14.30;;;20.70;71.10;;;;;;5051297;28;20463;-69
2022/05/30 06:39:54;;;;;;;13.83;13.33;;;20.80;71.10;;;;;;5051226;28;20483;-69
2022/05/30 06:42:21;;;;;;;13.90;13.40;;;20.70;70.90;;;;;;5051423;28;20631;-69
2022/05/30 06:44:48;;;;;;;14.37;13.87;;;20.80;71.00;;;;;;5051826;28;20505;-69
2022/05/30 06:47:15;;;;;;;15.33;14.73;;;20.80;70.90;;;;;;5055221;28;20935;-69
2022/05/30 06:49:42;;;;;;;14.73;14.23;;;20.70;70.70;;;;;;5055214;28;20950;-69
2022/05/30 06:52:11;;;;;;;15.00;14.30;;;20.80;70.70;;;;;;5055153;28;20463;-69
2022/05/30 06:54:39;;;;;;;14.53;13.87;;;20.70;70.50;;;;;;5055224;28;20447;-69
2022/05/30 06:59:51;;;;;;;14.10;13.70;;;20.70;70.40;;;;;;5055105;28;20830;-69
2022/05/30 07:02:18;;;;;;;14.90;14.20;;;20.80;70.30;;;;;;5055058;28;20467;-69
2022/05/30 07:04:45;;;;;;;13.97;13.47;;;20.80;70.30;;;;;;5055057;28;20435;-69
2022/05/30 07:07:11;;;;;;;14.60;14.10;;;20.80;70.30;;;;;;5054786;28;20439;-69
2022/05/30 07:09:40;;;;;;;15.57;14.80;;;20.70;70.10;;;;;;5054871;28;20443;-69
2022/05/30 07:12:09;;;;;;;14.97;14.30;;;20.80;70.10;;;;;;5054750;28;20460;-69
2022/05/30 07:14:36;;;;;;;14.83;14.20;;;20.70;69.90;;;;;;5054805;28;20455;-69
2022/05/30 07:17:03;;;;;;;14.73;14.23;;;20.70;69.80;;;;;;5054652;28;20448;-69
2022/05/30 07:19:31;;;;;;;14.80;14.30;;;20.80;69.80;;;;;;5054636;28;20498;-69
2022/05/30 07:21:59;;;;;;;14.30;13.90;;;20.70;69.70;;;;;;5054918;28;20463;-69
2022/05/30 07:24:26;;;;;;;14.93;14.23;;;20.70;69.60;;;;;;5054725;28;20526;-69
2022/05/30 07:26:54;;;;;;;14.30;13.80;;;20.70;69.50;;;;;;5054418;28;20451;-69
2022/05/30 07:29:20;;;;;;;16.10;15.50;;;20.70;69.40;;;;;;5054483;28;20447;-69
2022/05/30 07:31:47;;;;;;;15.00;14.40;;;20.70;69.40;;;;;;5054517;28;20824;-69
2022/05/30 07:34:14;;;;;;;14.37;13.80;;;20.70;69.30;;;;;;5054559;28;20448;-69
2022/05/30 07:36:41;;;;;;;13.93;13.53;;;20.70;69.10;;;;;;5054775;28;20444;-69
2022/05/30 07:39:07;;;;;;;14.50;14.00;;;20.70;69.10;;;;;;5054393;28;20480;-69
2022/05/30 07:41:39;;;;;;;14.20;13.70;;;20.70;69.10;;;;;;5054340;28;20801;-69
2022/05/30 07:44:07;;;;;;;15.03;14.53;;;20.70;69.00;;;;;;5054205;28;20444;-69
2022/05/30 07:46:34;;;;;;;14.50;14.00;;;20.70;69.00;;;;;;5054241;28;20448;-69
2022/05/30 07:49:01;;;;;;;14.23;13.73;;;20.70;69.00;;;;;;5054267;28;20451;-69
2022/05/30 07:51:27;;;;;;;13.50;13.10;;;20.70;68.80;;;;;;5054146;28;20471;-69
2022/05/30 07:53:54;;;;;;;14.37;13.87;;;20.70;68.80;;;;;;5054445;28;20448;-69
2022/05/30 07:56:21;;;;;;;14.83;14.27;;;20.70;68.70;;;;;;5053160;28;20858;-69
2022/05/30 07:58:48;;;;;;;14.10;13.40;;;20.70;68.60;;;;;;5053810;28;20483;-69
2022/05/30 08:01:19;;;;;;;13.40;13.10;;;20.70;69.40;;;;;;5053963;28;20879;-69
2022/05/30 08:03:47;;;;;;;13.93;13.43;;;20.70;68.50;;;;;;5053970;28;20444;-69
2022/05/30 08:06:17;;;;;;;13.60;13.13;;;20.70;68.50;;;;;;5054147;28;20436;-69
2022/05/30 08:08:44;;;;;;;13.87;13.40;;;20.70;68.40;;;;;;5053879;28;20448;-69
2022/05/30 08:11:11;;;;;;;13.30;12.90;;;20.70;68.30;;;;;;5053795;28;20468;-69
2022/05/30 08:13:38;;;;;;;13.93;13.40;;;20.70;68.20;;;;;;5053713;28;20440;-69
2022/05/30 08:16:06;;;;;;;13.20;12.70;;;20.70;68.10;;;;;;5053704;28;20451;-69
2022/05/30 08:18:34;;;;;;;14.37;13.80;;;20.70;68.10;;;;;;5053513;28;20452;-69
2022/05/30 08:21:02;;;;;;;12.93;12.53;;;20.70;68.10;;;;;;5053554;28;20456;-69
2022/05/30 08:23:29;;;;;;;12.40;12.10;;;20.70;68.00;;;;;;5053588;28;20445;-69
2022/05/30 08:25:56;;;;;;;13.13;12.70;;;20.70;68.00;;;;;;5053562;28;20455;-69
2022/05/30 08:28:24;;;;;;;13.17;12.67;;;20.70;67.90;;;;;;5053229;28;20452;-69
2022/05/30 08:30:51;;;;;;;13.90;13.13;;;20.70;67.90;;;;;;5053216;28;20843;-69
2022/05/30 08:33:20;;;;;;;14.00;13.40;;;20.70;67.90;;;;;;5053402;28;20440;-69
2022/05/30 08:35:59;;;;;;;13.60;13.10;;;20.70;67.80;;;;;;5053298;28;20788;-69
2022/05/30 08:38:26;;;;;;;13.63;13.13;;;20.70;67.70;;;;;;5053190;28;20511;-69
2022/05/30 08:43:41;;;;;;;14.00;13.50;;;20.70;67.60;;;;;;5053598;28;20432;-69
2022/05/30 08:46:12;;;;;;;14.40;13.80;;;20.70;67.60;;;;;;5053131;28;20498;-69
2022/05/30 08:48:45;;;;;;;13.67;13.27;;;20.70;67.60;;;;;;5053141;28;20440;-69
2022/05/30 08:51:36;;;;;;;14.20;13.60;;;20.70;67.50;;;;;;5053271;28;20460;-69
2022/05/30 08:54:26;;;;;;;13.80;13.30;;;20.70;67.50;;;;;;5053156;28;20471;-69
2022/05/30 08:56:55;;;;;;;14.40;14.00;;;20.70;67.40;;;;;;5052816;28;20440;-69
2022/05/30 08:59:37;;;;;;;14.13;13.63;;;20.70;67.40;;;;;;5052752;28;20475;-69
2022/05/30 09:02:10;;;;;;;14.30;13.80;;;20.70;67.30;;;;;;5053079;28;20495;-69
2022/05/30 09:04:44;;;;;;;13.30;13.00;;;20.70;67.20;;;;;;5053131;28;20444;-69
2022/05/30 09:07:16;;;;;;;13.77;13.37;;;20.70;67.10;;;;;;5052636;28;20448;-69
2022/05/30 09:09:49;;;;;;;13.47;13.07;;;20.70;67.10;;;;;;5052550;28;20483;-69
2022/05/30 09:12:20;;;;;;;13.47;13.07;;;20.70;67.10;;;;;;5052625;28;20468;-69
2022/05/30 09:14:52;;;;;;;14.30;13.80;;;20.70;67.10;;;;;;5052652;28;20615;-69
2022/05/30 09:17:24;;;;;;;13.20;12.80;;;20.70;66.90;;;;;;5052450;28;20830;-69
2022/05/30 09:19:53;;;;;;;13.70;13.30;;;20.70;66.90;;;;;;5052438;28;20522;-69
2022/05/30 09:22:24;;;;;;;13.20;12.70;;;20.70;67.00;;;;;;5052363;28;20483;-70
2022/05/30 09:27:32;;;;;;;13.40;12.80;;;20.70;66.90;;;;;;5051065;28;20435;-69
2022/05/30 09:30:01;;;;;;;13.70;13.27;;;20.70;66.80;;;;;;5052310;28;20436;-69
2022/05/30 09:32:38;;;;;;;14.27;13.77;;;20.70;66.70;;;;;;5052345;28;20459;-69
2022/05/30 09:35:25;;;;;;;12.70;12.40;;;20.70;66.80;;;;;;5052142;28;20439;-69
2022/05/30 09:38:07;;;;;;;13.43;13.03;;;20.70;66.70;;;;;;5052043;28;20837;-69
2022/05/30 09:40:39;;;;;;;13.43;13.07;;;20.70;66.70;;;;;;5052078;28;20483;-69
2022/05/30 09:43:07;;;;;;;13.30;13.00;;;20.70;66.70;;;;;;5052013;28;20440;-69
2022/05/30 09:45:35;;;;;;;13.70;13.17;;;20.70;66.70;;;;;;5052116;28;20792;-69
2022/05/30 09:48:05;;;;;;;13.20;12.80;;;20.70;66.70;;;;;;5051860;28;20448;-69
2022/05/30 09:50:41;;;;;;;13.80;13.30;;;20.70;66.60;;;;;;5051874;28;20461;-69
2022/05/30 09:53:10;;;;;;;13.83;13.43;;;20.70;66.50;;;;;;5051886;28;20810;-69
2022/05/30 09:55:38;;;;;;;14.33;13.87;;;20.70;66.40;;;;;;5051913;28;20818;-69
2022/05/30 09:58:07;;;;;;;13.40;13.10;;;20.70;66.40;;;;;;5051549;28;20440;-69
2022/05/30 10:00:40;;;;;;;14.00;13.60;;;20.70;66.40;;;;;;5051619;28;20507;-69
2022/05/30 10:03:12;;;;;;;14.00;13.40;;;20.70;66.20;;;;;;5051876;28;20444;-69
2022/05/30 10:05:40;;;;;;;13.37;12.97;;;20.70;66.20;;;;;;5051878;28;20494;-69
2022/05/30 10:08:24;;;;;;;13.23;12.60;;;20.70;67.00;;;;;;5051373;28;20506;-69
2022/05/30 10:10:53;;;;;;;14.47;14.07;;;20.70;66.20;;;;;;5051457;28;20460;-69
2022/05/30 10:13:34;;;;;;;13.43;13.03;;;20.70;66.10;;;;;;5051663;28;20444;-69
2022/05/30 10:16:03;;;;;;;13.53;13.13;;;20.70;66.10;;;;;;5051624;28;20996;-69
2022/05/30 10:18:33;;;;;;;13.67;13.27;;;20.70;66.10;;;;;;5051395;28;20515;-69
2022/05/30 10:21:27;;;;;;;13.50;13.10;;;20.70;66.00;;;;;;5050772;28;20858;-69
2022/05/30 10:33:07;;;;;;;13.70;13.30;;;20.70;66.00;;;;;;5093057;22;20844;-67
2022/05/30 10:35:40;;;;;;;13.70;13.30;;;20.70;66.00;;;;;;5071414;28;20447;-67
2022/05/30 10:38:20;;;;;;;13.70;13.20;;;20.70;65.90;;;;;;5071209;28;20443;-66
2022/05/30 10:41:04;;;;;;;13.17;12.83;;;20.70;65.90;;;;;;5069019;28;21036;-67
2022/05/30 10:43:43;;;;;;;13.83;13.43;;;20.70;66.60;;;;;;5051298;28;20768;-68
2022/05/30 10:46:15;;;;;;;14.00;13.60;;;20.70;65.80;;;;;;5051422;28;20450;-67
2022/05/30 10:48:50;;;;;;;13.57;13.27;;;20.70;65.80;;;;;;5051157;28;20539;-67
2022/05/30 10:51:22;;;;;;;13.60;13.20;;;20.80;65.80;;;;;;5051153;28;20475;-68
2022/05/30 10:53:57;;;;;;;14.20;13.80;;;20.80;65.90;;;;;;5051210;28;20984;-67
2022/05/30 10:56:29;;;;;;;13.80;13.40;;;20.80;65.80;;;;;;5051404;28;20630;-67
2022/05/30 10:59:03;;;;;;;13.67;13.30;;;20.80;65.70;;;;;;5050925;28;20444;-66
2022/05/30 11:01:40;;;;;;;13.57;13.17;;;20.80;65.70;;;;;;5051037;28;20554;-66
2022/05/30 11:04:19;;;;;;;14.07;13.67;;;20.80;65.70;;;;;;5051206;28;20826;-68
2022/05/30 11:06:48;;;;;;;13.80;13.40;;;20.80;65.60;;;;;;5051162;28;20448;-67
2022/05/30 11:09:24;;;;;;;13.80;13.43;;;20.80;65.60;;;;;;5051066;28;20961;-68
2022/05/30 11:12:01;;;;;;;14.23;13.73;;;20.80;65.40;;;;;;5051044;28;20526;-67
2022/05/30 11:14:35;;;;;;;13.50;13.20;;;20.80;65.40;;;;;;5051030;28;20444;-67
2022/05/30 11:17:12;;;;;;;13.53;13.13;;;20.80;65.30;;;;;;5050940;28;20842;-67
2022/05/30 11:19:59;;;;;;;12.93;12.63;;;20.80;65.40;;;;;;5050927;28;20802;-67
2022/05/30 11:22:35;;;;;;;12.90;12.60;;;20.80;65.30;;;;;;5051065;28;20471;-68
2022/05/30 11:25:03;;;;;;;13.50;13.13;;;20.80;65.20;;;;;;5051107;28;20963;-67
2022/05/30 11:27:37;;;;;;;13.77;13.23;;;20.80;65.20;;;;;;5050677;28;20458;-67
2022/05/30 11:30:26;;;;;;;13.00;12.60;;;20.80;65.20;;;;;;5050935;28;20987;-67
2022/05/30 11:33:06;;;;;;;14.30;13.90;;;20.80;65.30;;;;;;5054363;28;20487;-67
2022/05/30 11:35:34;;;;;;;13.10;12.80;;;20.80;65.20;;;;;;5054519;28;20448;-66
2022/05/30 11:38:29;;;;;;;13.33;13.03;;;20.80;65.10;;;;;;5054270;28;20440;-68
2022/05/30 11:41:03;;;;;;;13.93;13.53;;;20.80;65.10;;;;;;5044066;28;20857;-67
2022/05/30 11:43:49;;;;;;;13.80;13.40;;;20.80;65.10;;;;;;5054643;28;20439;-68
2022/05/30 11:46:24;;;;;;;13.40;13.00;;;20.80;65.10;;;;;;5054415;28;20440;-68
2022/05/30 11:48:58;;;;;;;13.13;12.80;;;20.80;65.00;;;;;;5054085;28;20439;-67
2022/05/30 11:51:36;;;;;;;13.10;12.70;;;20.80;65.00;;;;;;5054302;28;20471;-67
2022/05/30 11:54:29;;;;;;;12.90;12.60;;;20.80;64.90;;;;;;5054199;28;20761;-67
2022/05/30 11:57:06;;;;;;;13.23;12.83;;;20.80;64.90;;;;;;5053997;28;20440;-67
2022/05/30 11:59:48;;;;;;;13.60;13.23;;;20.80;64.80;;;;;;5054232;28;20518;-68
2022/05/30 12:02:20;;;;;;;13.60;13.20;;;20.80;64.80;;;;;;5053946;28;20971;-67
2022/05/30 12:05:21;;;;;;;13.67;13.27;;;20.90;64.90;;;;;;5053953;28;20455;-67
2022/05/30 12:08:20;;;;;;;13.10;12.70;;;20.90;64.80;;;;;;5053679;28;20803;-68
2022/05/30 12:11:07;;;;;;;14.67;14.27;;;20.90;64.90;;;;;;5053391;28;20448;-67
2022/05/30 12:13:50;;;;;;;12.93;12.53;;;20.90;64.80;;;;;;5053797;28;20970;-67
2022/05/30 12:16:30;;;;;;;13.60;13.20;;;20.90;64.80;;;;;;5053718;28;20448;-67
2022/05/30 12:25:41;;;;;;;13.30;13.00;;;20.90;64.70;;;;;;5053529;28;20474;-68
2022/05/30 12:28:46;;;;;;;13.33;12.93;;;20.90;64.60;;;;;;5053228;28;20530;-67
2022/05/30 12:31:38;;;;;;;12.80;12.50;;;20.90;64.50;;;;;;5053114;28;20472;-68
2022/05/30 12:34:06;;;;;;;12.77;12.47;;;20.90;64.50;;;;;;5053406;28;20444;-67
2022/05/30 12:36:46;;;;;;;13.30;12.90;;;20.90;64.50;;;;;;5053208;28;20949;-67
2022/05/30 12:39:34;;;;;;;13.07;12.67;;;20.90;64.40;;;;;;5053308;28;20502;-68
2022/05/30 12:42:07;;;;;;;13.20;12.80;;;20.90;64.30;;;;;;5053250;28;20567;-68
2022/05/30 12:44:54;;;;;;;13.23;12.83;;;20.90;64.20;;;;;;5053034;28;20487;-68
2022/05/30 12:47:30;;;;;;;13.43;13.03;;;21.00;64.40;;;;;;5052986;28;20451;-66
2022/05/30 12:50:39;;;;;;;13.50;13.10;;;21.00;64.30;;;;;;5053262;28;20475;-66
2022/05/30 12:53:07;;;;;;;13.23;12.93;;;21.00;64.30;;;;;;5053396;28;20440;-67
2022/05/30 12:55:38;;;;;;;13.13;12.83;;;21.00;64.30;;;;;;5053008;28;20440;-67
2022/05/30 12:58:04;;;;;;;13.67;13.30;;;21.00;64.40;;;;;;5052825;28;20481;-68
2022/05/30 13:00:51;;;;;;;13.27;12.87;;;21.00;64.40;;;;;;5052605;28;20503;-66
2022/05/30 13:03:47;;;;;;;13.53;13.13;;;21.00;64.40;;;;;;5052898;28;20440;-68
2022/05/30 13:06:21;;;;;;;13.10;12.70;;;21.00;64.40;;;;;;5052710;28;20498;-67
2022/05/30 13:08:59;;;;;;;13.80;13.40;;;21.00;64.40;;;;;;5052439;28;20456;-67
2022/05/30 13:11:52;;;;;;;13.80;13.40;;;21.00;64.50;;;;;;5052813;28;20997;-67
2022/05/30 13:14:27;;;;;;;13.50;13.20;;;21.00;64.50;;;;;;5052695;28;20444;-68
2022/05/30 13:16:59;;;;;;;13.90;13.50;;;21.00;64.50;;;;;;5052444;28;20444;-67
2022/05/30 13:19:30;;;;;;;13.70;13.30;;;21.00;64.40;;;;;;5052495;28;20451;-68
2022/05/30 13:21:57;;;;;;;12.90;12.60;;;21.00;64.40;;;;;;5052215;28;20487;-68